Time;durP1;ratioP1;P1;durP2;ratioP2;P2;SDS_P1;SDS_P2;PMS_P1;PMS_P2;Temp;Humidity;BMP_temperature;BMP_pressure;BME280_temperature;BME280_humidity;BME280_pressure;Samples;Min_cycle;Max_cycle;Signal;HPM_P1;HPM_P2
2024/04/22 00:01:42;;;;;;;4.73;3.30;;;6.40;98.40;;;;;;5487883;26;20220;-84
2024/04/22 00:04:08;;;;;;;4.47;3.60;;;6.40;98.40;;;;;;5489070;26;20220;-86
2024/04/22 00:06:34;;;;;;;4.30;3.40;;;6.40;97.90;;;;;;5488776;26;20742;-86
2024/04/22 00:09:00;;;;;;;4.27;3.43;;;6.40;98.20;;;;;;5488299;26;20288;-86
2024/04/22 00:11:27;;;;;;;5.03;3.80;;;6.40;98.20;;;;;;5488313;26;20224;-85
2024/04/22 00:13:52;;;;;;;7.83;4.00;;;6.40;98.40;;;;;;5489387;26;20267;-88
2024/04/22 00:16:18;;;;;;;4.87;3.80;;;6.50;98.80;;;;;;5487277;26;20889;-83
2024/04/22 00:18:45;;;;;;;4.77;3.60;;;6.50;97.90;;;;;;5489354;26;20716;-83
2024/04/22 00:21:12;;;;;;;4.77;3.53;;;6.60;97.50;;;;;;5490375;26;20263;-85
2024/04/22 00:23:38;;;;;;;5.27;4.00;;;6.60;98.10;;;;;;5490479;26;20304;-85
2024/04/22 00:26:04;;;;;;;4.33;3.53;;;6.60;95.80;;;;;;5492879;26;20216;-84
2024/04/22 00:28:30;;;;;;;5.53;3.20;;;6.60;95.70;;;;;;5492528;26;20315;-87
2024/04/22 00:30:55;;;;;;;4.70;3.80;;;6.50;96.00;;;;;;5491802;26;20235;-85
2024/04/22 00:33:21;;;;;;;4.43;3.43;;;6.60;96.60;;;;;;5492158;26;20224;-85
2024/04/22 00:35:58;;;;;;;4.70;3.50;;;6.50;96.10;;;;;;5492180;26;20277;-85
2024/04/22 00:38:27;;;;;;;4.17;3.53;;;6.50;96.50;;;;;;5492747;26;20250;-87
2024/04/22 00:40:55;;;;;;;5.30;3.93;;;6.50;97.60;;;;;;5491264;26;20216;-84
2024/04/22 00:43:20;;;;;;;6.13;3.67;;;6.50;98.60;;;;;;5489141;26;20243;-88
2024/04/22 00:45:46;;;;;;;6.00;4.40;;;6.40;99.30;;;;;;5489500;26;20232;-86
2024/04/22 00:48:14;;;;;;;6.50;4.17;;;6.30;99.90;;;;;;5492808;26;20254;-87
2024/04/22 00:50:42;;;;;;;6.17;3.87;;;6.40;99.90;;;;;;5491263;26;20705;-85
2024/04/22 00:53:09;;;;;;;5.43;3.70;;;6.40;99.90;;;;;;5490864;26;20277;-90
2024/04/22 00:55:37;;;;;;;5.93;4.10;;;6.30;99.90;;;;;;5490971;26;20535;-85
2024/04/22 00:58:04;;;;;;;6.93;4.23;;;6.40;99.90;;;;;;5490005;26;20289;-89
2024/04/22 01:00:30;;;;;;;5.00;3.97;;;6.30;99.90;;;;;;5490826;26;20263;-87
2024/04/22 01:02:56;;;;;;;5.43;4.00;;;6.30;99.90;;;;;;5492038;26;20212;-85
2024/04/22 01:05:22;;;;;;;4.77;3.93;;;6.30;99.90;;;;;;5490733;26;20282;-87
2024/04/22 01:07:49;;;;;;;4.70;3.83;;;6.30;99.90;;;;;;5493324;26;20213;-88
2024/04/22 01:10:15;;;;;;;5.57;4.03;;;6.30;99.90;;;;;;5490947;26;20664;-87
2024/04/22 01:12:41;;;;;;;5.47;4.17;;;6.30;99.90;;;;;;5491875;26;20236;-83
2024/04/22 01:15:07;;;;;;;5.70;4.17;;;6.40;99.90;;;;;;5491156;26;20220;-87
2024/04/22 01:17:40;;;;;;;6.00;4.20;;;6.40;99.80;;;;;;5492390;26;20606;-84
2024/04/22 01:20:08;;;;;;;4.80;4.00;;;6.40;99.40;;;;;;5489639;26;20224;-89
2024/04/22 01:22:34;;;;;;;5.30;4.03;;;6.30;99.90;;;;;;5488702;26;20223;-86
2024/04/22 01:25:01;;;;;;;5.37;4.17;;;6.30;99.90;;;;;;5492252;26;20255;-86
2024/04/22 01:27:28;;;;;;;4.30;3.57;;;6.30;99.90;;;;;;5492354;26;20312;-86
2024/04/22 01:29:54;;;;;;;5.57;4.00;;;6.30;99.90;;;;;;5492780;26;20228;-87
2024/04/22 01:32:20;;;;;;;5.23;4.33;;;6.30;99.90;;;;;;5489713;26;20617;-88
2024/04/22 01:34:51;;;;;;;5.50;4.27;;;6.30;99.90;;;;;;5490768;26;20224;-85
2024/04/22 01:37:18;;;;;;;4.40;3.70;;;6.30;99.90;;;;;;5493185;26;20212;-88
2024/04/22 01:39:43;;;;;;;5.40;4.23;;;6.20;99.90;;;;;;5490891;26;20262;-89
2024/04/22 01:42:09;;;;;;;5.27;4.37;;;6.20;99.90;;;;;;5492341;26;20558;-85
2024/04/22 01:44:35;;;;;;;5.50;4.27;;;6.10;99.90;;;;;;5491081;26;20304;-87
2024/04/22 01:47:00;;;;;;;6.23;3.93;;;6.20;99.90;;;;;;5490244;26;20216;-83
2024/04/22 01:49:26;;;;;;;5.07;4.10;;;6.20;99.90;;;;;;5491334;26;20308;-88
2024/04/22 01:51:52;;;;;;;7.60;5.00;;;6.30;99.90;;;;;;5490858;26;20623;-89
2024/04/22 01:54:18;;;;;;;7.40;4.47;;;6.20;99.90;;;;;;5492917;26;20220;-89
2024/04/22 01:56:45;;;;;;;6.30;4.53;;;6.30;99.90;;;;;;5491878;26;20708;-86
2024/04/22 01:59:11;;;;;;;6.40;4.33;;;6.30;99.90;;;;;;5490274;26;20251;-86
2024/04/22 02:01:40;;;;;;;5.77;4.17;;;6.30;99.90;;;;;;5492215;26;20220;-89
2024/04/22 02:04:06;;;;;;;5.27;4.37;;;6.30;99.90;;;;;;5491814;26;20313;-89
2024/04/22 02:06:32;;;;;;;6.13;4.40;;;6.30;99.90;;;;;;5492091;26;20232;-85
2024/04/22 02:08:58;;;;;;;5.40;4.60;;;6.40;99.90;;;;;;5497831;26;20250;-86
2024/04/22 02:11:24;;;;;;;5.07;4.13;;;6.40;99.40;;;;;;5496434;26;20216;-85
2024/04/22 02:13:50;;;;;;;7.43;4.40;;;6.40;99.90;;;;;;5495732;26;20229;-84
2024/04/22 02:16:16;;;;;;;5.13;4.40;;;6.50;98.80;;;;;;5490667;26;20225;-90
2024/04/22 02:18:43;;;;;;;5.53;4.23;;;6.50;98.70;;;;;;5488441;26;20303;-89
2024/04/22 02:21:08;;;;;;;4.70;3.70;;;6.40;97.70;;;;;;5491390;26;20212;-85
2024/04/22 02:23:34;;;;;;;5.20;4.43;;;6.40;97.90;;;;;;5491197;26;20320;-85
2024/04/22 02:26:00;;;;;;;6.53;4.20;;;6.40;97.40;;;;;;5490207;26;20243;-84
2024/04/22 02:28:26;;;;;;;6.47;4.17;;;6.30;98.10;;;;;;5491607;26;20216;-84
2024/04/22 02:30:52;;;;;;;5.90;3.80;;;6.30;98.50;;;;;;5490861;26;20268;-83
2024/04/22 02:33:19;;;;;;;7.50;4.63;;;6.40;98.20;;;;;;5491417;26;20213;-83
2024/04/22 02:35:45;;;;;;;5.77;4.43;;;6.40;97.60;;;;;;5491536;26;20259;-84
2024/04/22 02:38:11;;;;;;;5.50;4.30;;;6.30;97.50;;;;;;5492558;26;20216;-87
2024/04/22 02:40:43;;;;;;;5.97;4.33;;;6.30;97.80;;;;;;5491596;26;20247;-85
2024/04/22 02:43:08;;;;;;;6.63;4.30;;;6.30;98.80;;;;;;5489708;26;20208;-85
2024/04/22 02:45:34;;;;;;;5.07;4.23;;;6.30;98.20;;;;;;5487162;26;20251;-89
2024/04/22 02:48:00;;;;;;;5.80;4.27;;;6.30;98.50;;;;;;5488147;26;20236;-84
2024/04/22 02:50:25;;;;;;;5.63;4.43;;;6.30;97.80;;;;;;5488450;26;20271;-84
2024/04/22 02:52:51;;;;;;;5.60;4.10;;;6.40;97.00;;;;;;5488550;26;20224;-85
2024/04/22 02:55:17;;;;;;;5.17;4.07;;;6.30;97.50;;;;;;5490105;26;20356;-86
2024/04/22 02:57:43;;;;;;;5.93;4.40;;;6.30;97.60;;;;;;5487729;26;20220;-87
2024/04/22 03:00:09;;;;;;;5.80;4.17;;;6.30;97.70;;;;;;5490557;26;20628;-88
2024/04/22 03:02:35;;;;;;;5.47;4.57;;;6.30;98.30;;;;;;5489676;26;20260;-88
2024/04/22 03:05:00;;;;;;;6.37;4.90;;;6.40;97.40;;;;;;5488662;26;20220;-87
2024/04/22 03:07:27;;;;;;;6.20;4.90;;;6.30;98.00;;;;;;5490938;26;20689;-84
2024/04/22 03:09:52;;;;;;;6.97;4.03;;;6.40;98.20;;;;;;5491149;26;20219;-86
2024/04/22 03:12:18;;;;;;;8.00;4.97;;;6.30;98.80;;;;;;5489359;26;20235;-83
2024/04/22 03:14:44;;;;;;;6.57;5.00;;;6.20;99.70;;;;;;5488984;26;20684;-86
2024/04/22 03:17:09;;;;;;;5.00;4.13;;;6.20;99.90;;;;;;5490067;26;20283;-85
2024/04/22 03:19:35;;;;;;;6.47;4.90;;;6.20;99.80;;;;;;5488719;26;20308;-84
2024/04/22 03:22:01;;;;;;;5.87;4.40;;;6.30;99.40;;;;;;5490199;26;20224;-85
2024/04/22 03:24:26;;;;;;;7.03;4.70;;;6.20;98.90;;;;;;5490451;26;20247;-89
2024/04/22 03:26:52;;;;;;;5.67;4.50;;;6.20;99.20;;;;;;5487974;26;20235;-85
2024/04/22 03:29:18;;;;;;;5.97;4.60;;;6.20;99.90;;;;;;5488734;26;20233;-88
2024/04/22 03:31:44;;;;;;;6.27;4.80;;;6.10;99.90;;;;;;5488241;26;20224;-88
2024/04/22 03:34:09;;;;;;;5.43;4.30;;;6.10;99.90;;;;;;5490591;26;20224;-87
2024/04/22 03:36:35;;;;;;;5.27;4.43;;;6.20;99.90;;;;;;5490327;26;20219;-86
2024/04/22 03:39:00;;;;;;;5.27;4.53;;;6.20;99.90;;;;;;5488944;26;20220;-85
2024/04/22 03:41:27;;;;;;;5.57;4.33;;;6.20;99.90;;;;;;5490030;26;20722;-86
2024/04/22 03:43:54;;;;;;;6.57;4.47;;;6.30;99.90;;;;;;5488798;26;20580;-86
2024/04/22 03:51:49;;;;;;;6.20;5.13;;;6.10;99.90;;;;;;5491396;26;20712;-82
2024/04/22 03:54:15;;;;;;;7.27;4.97;;;6.20;99.90;;;;;;5489919;26;20216;-89
2024/04/22 03:56:41;;;;;;;5.30;4.80;;;6.10;99.90;;;;;;5488264;26;20224;-87
2024/04/22 03:59:07;;;;;;;6.67;5.00;;;6.20;99.90;;;;;;5490447;26;20267;-84
2024/04/22 04:01:33;;;;;;;6.20;4.77;;;6.20;99.90;;;;;;5488744;26;20224;-84
2024/04/22 04:03:59;;;;;;;7.03;5.00;;;6.20;99.90;;;;;;5490476;26;20283;-88
2024/04/22 04:06:27;;;;;;;5.33;4.23;;;6.20;99.90;;;;;;5490366;26;20216;-88
2024/04/22 04:08:54;;;;;;;5.70;4.70;;;6.20;99.90;;;;;;5489228;26;20216;-89
2024/04/22 04:11:26;;;;;;;6.63;5.20;;;6.10;99.90;;;;;;5492036;26;20263;-86
2024/04/22 04:13:51;;;;;;;6.80;5.07;;;6.10;99.90;;;;;;5490863;26;20626;-85
2024/04/22 04:16:17;;;;;;;7.20;4.90;;;6.30;99.90;;;;;;5493749;26;20255;-85
2024/04/22 04:18:43;;;;;;;7.57;4.93;;;6.10;99.90;;;;;;5492191;26;20212;-84
2024/04/22 04:21:08;;;;;;;9.77;5.27;;;6.10;99.90;;;;;;5491675;26;20212;-84
2024/04/22 04:23:34;;;;;;;6.47;5.00;;;6.00;99.90;;;;;;5490367;26;20208;-87
2024/04/22 04:26:01;;;;;;;8.23;5.13;;;6.00;99.90;;;;;;5489180;26;20681;-88
2024/04/22 04:28:27;;;;;;;8.63;5.23;;;6.00;99.90;;;;;;5488947;26;20504;-87
2024/04/22 04:30:57;;;;;;;6.67;4.93;;;6.00;99.90;;;;;;5489063;26;20693;-85
2024/04/22 04:33:25;;;;;;;6.30;4.93;;;5.90;99.90;;;;;;5487240;26;20220;-88
2024/04/22 04:35:57;;;;;;;7.07;5.30;;;6.00;99.90;;;;;;5487710;26;20243;-88
2024/04/22 04:38:24;;;;;;;7.47;5.87;;;6.00;99.90;;;;;;5489217;26;20712;-85
2024/04/22 04:40:50;;;;;;;7.67;5.40;;;6.00;99.90;;;;;;5486973;26;20224;-87
2024/04/22 04:43:15;;;;;;;7.10;5.13;;;6.00;99.90;;;;;;5486347;26;20568;-87
2024/04/22 04:45:41;;;;;;;7.13;4.73;;;5.90;99.20;;;;;;5487101;26;20627;-84
2024/04/22 04:48:07;;;;;;;6.97;5.03;;;5.90;99.90;;;;;;5485999;26;20308;-85
2024/04/22 04:50:34;;;;;;;6.73;5.00;;;5.80;99.90;;;;;;5486256;26;20284;-88
2024/04/22 04:53:00;;;;;;;9.73;5.80;;;5.90;99.90;;;;;;5489235;26;20250;-83
2024/04/22 04:55:26;;;;;;;7.57;5.43;;;5.90;99.90;;;;;;5488339;26;20766;-85
2024/04/22 04:57:52;;;;;;;7.43;5.23;;;5.90;98.30;;;;;;5488155;26;20263;-84
2024/04/22 05:00:18;;;;;;;6.23;5.33;;;5.90;99.00;;;;;;5488237;26;20808;-87
2024/04/22 05:02:44;;;;;;;6.80;5.37;;;5.90;98.90;;;;;;5488314;26;20224;-84
2024/04/22 05:05:10;;;;;;;9.40;5.23;;;5.90;98.40;;;;;;5488444;26;20297;-87
2024/04/22 05:07:36;;;;;;;8.40;5.00;;;5.80;99.20;;;;;;5490021;26;20213;-84
2024/04/22 05:10:02;;;;;;;7.73;5.37;;;5.90;99.90;;;;;;5489286;26;20251;-83
2024/04/22 05:12:28;;;;;;;6.80;4.70;;;5.80;99.00;;;;;;5491055;26;20236;-89
2024/04/22 05:14:55;;;;;;;5.67;5.03;;;5.90;97.50;;;;;;5491412;26;20231;-88
2024/04/22 05:17:21;;;;;;;7.47;5.30;;;5.80;97.20;;;;;;5491232;26;20723;-85
2024/04/22 05:19:46;;;;;;;6.70;5.07;;;5.90;97.80;;;;;;5489740;26;20247;-86
2024/04/22 05:22:12;;;;;;;8.00;5.33;;;6.00;96.70;;;;;;5490407;26;20222;-85
2024/04/22 05:24:38;;;;;;;7.57;5.30;;;6.00;95.90;;;;;;5490470;26;20221;-89
2024/04/22 05:27:04;;;;;;;6.47;5.40;;;6.00;94.80;;;;;;5492329;26;20285;-87
2024/04/22 05:29:31;;;;;;;8.97;5.83;;;6.00;94.40;;;;;;5490919;26;20235;-87
2024/04/22 05:31:56;;;;;;;7.10;4.60;;;6.00;94.70;;;;;;5491350;26;20220;-89
2024/04/22 05:37:07;;;;;;;8.17;5.07;;;5.90;95.70;;;;;;5494499;26;20323;-87
2024/04/22 05:39:33;;;;;;;7.70;5.03;;;5.90;95.10;;;;;;5492952;26;20225;-83
2024/04/22 05:41:59;;;;;;;7.20;5.03;;;5.90;94.10;;;;;;5495452;26;20263;-87
2024/04/22 05:44:24;;;;;;;6.37;5.03;;;5.90;92.60;;;;;;5493274;26;20738;-86
2024/04/22 05:46:50;;;;;;;7.23;5.93;;;6.00;92.70;;;;;;5491429;26;20332;-86
2024/04/22 05:49:16;;;;;;;7.10;5.23;;;6.10;91.80;;;;;;5493315;26;20247;-83
2024/04/22 05:51:41;;;;;;;6.77;5.13;;;6.20;90.70;;;;;;5490321;26;20578;-84
2024/04/22 05:54:09;;;;;;;7.37;5.40;;;6.10;90.40;;;;;;5491596;26;20259;-84
2024/04/22 05:56:35;;;;;;;7.23;5.53;;;6.20;90.10;;;;;;5491916;26;20297;-85
2024/04/22 05:59:01;;;;;;;7.80;5.20;;;6.40;91.10;;;;;;5489903;26;20236;-87
2024/04/22 06:01:27;;;;;;;7.73;5.23;;;6.40;90.30;;;;;;5491363;26;20650;-84
2024/04/22 06:03:53;;;;;;;6.30;4.97;;;6.40;85.50;;;;;;5490022;26;20220;-88
2024/04/22 06:06:20;;;;;;;6.90;5.13;;;6.50;82.80;;;;;;5490121;26;20302;-83
2024/04/22 06:08:46;;;;;;;7.77;5.17;;;6.60;79.30;;;;;;5490421;26;20224;-84
2024/04/22 06:11:11;;;;;;;6.60;4.70;;;6.60;76.00;;;;;;5488789;26;20228;-87
2024/04/22 06:13:37;;;;;;;6.43;4.87;;;6.60;72.00;;;;;;5488259;26;20240;-86
2024/04/22 06:16:03;;;;;;;6.67;4.67;;;6.60;67.40;;;;;;5490360;26;20247;-84
2024/04/22 06:18:29;;;;;;;5.77;4.70;;;6.60;68.90;;;;;;5489091;26;20677;-86
2024/04/22 06:20:55;;;;;;;6.30;4.93;;;6.70;67.90;;;;;;5489187;26;20285;-89
2024/04/22 06:23:20;;;;;;;6.97;4.77;;;6.70;64.20;;;;;;5490667;26;20644;-88
2024/04/22 06:25:46;;;;;;;7.97;4.33;;;6.70;65.80;;;;;;5489859;26;20251;-88
2024/04/22 06:28:13;;;;;;;6.87;5.00;;;6.70;66.80;;;;;;5488622;26;20273;-85
2024/04/22 06:30:39;;;;;;;6.63;4.50;;;6.80;64.10;;;;;;5489582;26;20240;-87
2024/04/22 06:33:04;;;;;;;6.00;4.67;;;6.90;61.30;;;;;;5493145;26;20724;-85
2024/04/22 06:35:30;;;;;;;7.20;4.93;;;7.00;60.70;;;;;;5491089;26;20699;-86
2024/04/22 06:37:56;;;;;;;5.70;4.60;;;7.10;56.40;;;;;;5490450;26;20216;-91
2024/04/22 06:40:23;;;;;;;6.13;4.70;;;7.10;54.30;;;;;;5492438;26;20317;-84
2024/04/22 06:42:48;;;;;;;6.53;4.60;;;7.20;51.90;;;;;;5491712;26;20262;-88
2024/04/22 06:45:14;;;;;;;8.43;5.10;;;7.30;52.70;;;;;;5492567;26;20224;-86
2024/04/22 06:47:40;;;;;;;7.97;5.07;;;7.40;52.00;;;;;;5492584;26;20244;-87
2024/04/22 06:50:06;;;;;;;5.90;4.90;;;7.30;48.40;;;;;;5500690;26;20263;-88
2024/04/22 06:52:32;;;;;;;7.80;5.03;;;7.20;49.60;;;;;;5509141;26;20236;-86
2024/04/22 06:54:57;;;;;;;8.70;5.10;;;7.10;51.20;;;;;;5510409;26;20266;-84
2024/04/22 06:57:24;;;;;;;8.03;5.00;;;7.10;50.60;;;;;;5511945;26;20573;-89
2024/04/22 06:59:51;;;;;;;7.00;4.83;;;7.20;52.60;;;;;;5499573;26;20240;-89
2024/04/22 07:02:16;;;;;;;8.17;5.60;;;7.10;53.70;;;;;;5550318;25;20371;-90
2024/04/22 07:04:42;;;;;;;6.90;4.70;;;7.30;53.80;;;;;;5490730;26;20266;-87
2024/04/22 07:07:07;;;;;;;8.07;4.70;;;7.40;50.30;;;;;;5487270;26;20295;-86
2024/04/22 07:09:33;;;;;;;6.30;5.07;;;7.60;44.10;;;;;;5490579;26;20684;-92
2024/04/22 07:11:59;;;;;;;6.03;5.00;;;7.70;41.70;;;;;;5487968;26;20730;-93
2024/04/22 07:14:24;;;;;;;6.13;4.53;;;7.60;38.40;;;;;;5491101;26;20275;-88
2024/04/22 07:16:54;;;;;;;6.40;4.30;;;7.60;40.20;;;;;;5488516;26;20224;-84
2024/04/22 07:19:20;;;;;;;10.33;4.50;;;7.70;36.40;;;;;;5490647;26;20212;-90
2024/04/22 07:21:46;;;;;;;4.97;4.13;;;7.90;37.40;;;;;;5490638;26;20263;-86
2024/04/22 07:24:12;;;;;;;5.37;4.23;;;8.00;30.70;;;;;;5488158;26;20220;-85
2024/04/22 07:26:37;;;;;;;6.00;4.30;;;8.10;27.60;;;;;;5491942;26;20560;-91
2024/04/22 07:29:03;;;;;;;5.47;3.87;;;8.30;26.00;;;;;;5488848;26;20228;-89
2024/04/22 07:31:29;;;;;;;6.50;3.73;;;8.40;19.20;;;;;;5488525;26;20216;-87
2024/04/22 07:33:55;;;;;;;7.07;3.50;;;8.50;16.10;;;;;;5488054;26;20693;-90
2024/04/22 07:36:36;;;;;;;4.63;3.20;;;8.50;15.70;;;;;;5488682;26;20289;-89
2024/04/22 07:39:04;;;;;;;5.47;3.00;;;8.60;15.80;;;;;;5487898;26;20220;-85
2024/04/22 07:41:31;;;;;;;5.70;2.90;;;8.70;14.20;;;;;;5488168;26;20247;-84
2024/04/22 07:43:57;;;;;;;5.27;2.90;;;8.80;9.90;;;;;;5491570;26;20221;-91
2024/04/22 07:46:24;;;;;;;5.20;3.00;;;8.60;2.70;;;;;;5489113;26;20263;-92
2024/04/22 07:48:50;;;;;;;5.47;3.10;;;8.60;7.90;;;;;;5551638;25;20220;-86
2024/04/22 07:51:16;;;;;;;4.43;2.93;;;8.60;5.40;;;;;;5488219;26;20220;-85
2024/04/22 07:53:42;;;;;;;6.50;2.90;;;8.60;4.90;;;;;;5489768;26;20729;-85
2024/04/22 07:56:17;;;;;;;7.90;3.43;;;8.60;7.40;;;;;;5489872;26;20801;-87
2024/04/22 07:58:44;;;;;;;5.33;2.67;;;8.70;11.30;;;;;;5490054;26;20216;-85
2024/04/22 08:01:12;;;;;;;7.00;3.47;;;8.80;8.20;;;;;;5489690;26;20657;-86
2024/04/22 08:03:38;;;;;;;10.13;3.13;;;8.80;6.20;;;;;;5490936;26;20228;-86
2024/04/22 08:06:08;;;;;;;5.53;2.70;;;8.80;3.50;;;;;;5488650;26;20247;-85
2024/04/22 08:08:35;;;;;;;6.27;3.03;;;8.80;5.40;;;;;;5488933;26;20276;-90
2024/04/22 08:11:01;;;;;;;6.90;3.37;;;8.90;4.70;;;;;;5489629;26;20280;-89
2024/04/22 08:13:27;;;;;;;4.97;2.80;;;8.90;3.60;;;;;;5490305;26;20312;-88
2024/04/22 08:15:52;;;;;;;7.10;3.33;;;8.90;3.60;;;;;;5550036;25;20681;-86
2024/04/22 08:18:19;;;;;;;4.03;3.00;;;9.10;4.50;;;;;;5490716;26;20641;-85
2024/04/22 08:20:45;;;;;;;5.07;2.50;;;9.10;1.00;;;;;;5489556;26;20256;-84
2024/04/22 08:23:10;;;;;;;4.43;2.53;;;9.10;1.00;;;;;;5551007;25;20224;-91
2024/04/22 08:25:36;;;;;;;4.03;2.10;;;9.10;1.00;;;;;;5550327;25;20250;-85
2024/04/22 08:28:02;;;;;;;6.10;2.10;;;9.00;1.00;;;;;;5490893;26;20213;-84
2024/04/22 08:30:27;;;;;;;6.13;2.43;;;9.00;1.00;;;;;;5493384;26;20280;-86
2024/04/22 08:32:55;;;;;;;6.80;1.83;;;8.90;1.00;;;;;;5493143;26;20215;-86
2024/04/22 08:35:21;;;;;;;6.10;1.90;;;9.00;1.00;;;;;;5493363;26;20242;-85
2024/04/22 08:37:47;;;;;;;5.77;2.10;;;9.10;1.00;;;;;;5489755;26;20542;-85
2024/04/22 08:40:13;;;;;;;6.17;2.90;;;9.10;1.00;;;;;;5552816;25;20228;-90
2024/04/22 08:42:40;;;;;;;4.97;2.30;;;9.20;1.00;;;;;;5522768;25;20220;-91
2024/04/22 08:45:11;;;;;;;4.23;2.03;;;9.30;1.00;;;;;;5556461;25;20247;-89
2024/04/22 08:47:37;;;;;;;4.97;2.10;;;9.30;1.00;;;;;;5519156;26;20231;-88
2024/04/22 08:50:03;;;;;;;4.53;1.77;;;9.30;1.00;;;;;;5593094;25;20572;-87
2024/04/22 08:52:29;;;;;;;4.43;1.67;;;9.40;1.00;;;;;;5528163;25;20215;-86
2024/04/22 08:54:56;;;;;;;2.83;1.60;;;9.50;1.00;;;;;;5531369;25;20257;-85
2024/04/22 08:57:23;;;;;;;4.47;1.40;;;9.60;1.00;;;;;;5533829;25;20675;-88
2024/04/22 08:59:51;;;;;;;4.37;1.40;;;9.70;1.00;;;;;;5530875;26;20228;-89
2024/04/22 09:02:17;;;;;;;4.40;1.80;;;9.60;1.00;;;;;;5595669;25;20219;-92
2024/04/22 09:04:46;;;;;;;3.60;1.50;;;9.50;1.00;;;;;;5595684;25;20219;-89
2024/04/22 09:07:19;;;;;;;2.33;1.20;;;9.50;1.00;;;;;;5532757;25;20219;-84
2024/04/22 09:09:46;;;;;;;3.90;1.47;;;9.50;1.00;;;;;;5531949;25;20736;-84
2024/04/22 09:12:16;;;;;;;5.83;1.50;;;9.60;1.00;;;;;;5529818;26;20339;-88
2024/04/22 09:14:44;;;;;;;4.87;1.50;;;9.70;1.00;;;;;;5532747;25;20211;-88
2024/04/22 09:17:18;;;;;;;3.43;1.50;;;9.70;1.00;;;;;;5534209;26;20211;-87
2024/04/22 09:19:45;;;;;;;5.83;1.60;;;10.00;1.00;;;;;;5531831;25;20219;-92
2024/04/22 09:22:13;;;;;;;3.70;1.43;;;10.20;1.00;;;;;;5531875;25;20672;-84
2024/04/22 09:24:39;;;;;;;3.10;1.20;;;10.20;1.00;;;;;;5532210;25;20300;-85
2024/04/22 09:27:05;;;;;;;5.13;1.70;;;10.20;1.00;;;;;;5594895;25;20359;-89
2024/04/22 09:29:36;;;;;;;5.40;1.93;;;10.10;1.00;;;;;;5532155;25;20661;-90
2024/04/22 09:32:09;;;;;;;2.43;1.23;;;10.10;1.00;;;;;;5529848;25;20758;-84
2024/04/22 09:34:40;;;;;;;4.60;1.50;;;10.30;1.00;;;;;;5528660;25;20262;-84
2024/04/22 09:37:08;;;;;;;4.90;1.80;;;10.10;1.00;;;;;;5531427;25;20649;-85
2024/04/22 09:39:37;;;;;;;6.07;1.40;;;10.10;1.00;;;;;;5531435;25;20251;-85
2024/04/22 09:42:04;;;;;;;4.13;1.20;;;10.20;1.00;;;;;;5530037;26;20334;-85
2024/04/22 09:44:30;;;;;;;3.87;1.30;;;10.10;1.00;;;;;;5528132;25;20722;-87
2024/04/22 09:46:56;;;;;;;4.10;1.23;;;10.10;1.00;;;;;;5530928;25;20211;-89
2024/04/22 09:49:24;;;;;;;5.40;1.70;;;10.10;1.00;;;;;;5591705;25;20302;-85
2024/04/22 09:51:52;;;;;;;4.90;1.40;;;10.40;1.00;;;;;;5530363;25;20638;-83
2024/04/22 09:54:18;;;;;;;3.77;1.40;;;10.40;1.00;;;;;;5529934;26;20262;-85
2024/04/22 09:56:47;;;;;;;3.67;1.53;;;10.30;1.00;;;;;;5590773;25;20640;-88
2024/04/22 09:59:13;;;;;;;4.03;1.43;;;10.40;1.00;;;;;;5529303;25;20589;-89
2024/04/22 10:01:39;;;;;;;6.90;1.70;;;10.30;1.00;;;;;;5522572;26;20263;-87
2024/04/22 10:04:05;;;;;;;5.93;1.70;;;10.20;1.00;;;;;;5512610;26;20207;-89
2024/04/22 10:06:32;;;;;;;8.37;2.00;;;10.30;1.00;;;;;;5528897;25;20251;-86
2024/04/22 10:09:01;;;;;;;2.97;1.23;;;10.50;1.00;;;;;;5526823;25;20227;-85
2024/04/22 10:11:30;;;;;;;6.57;2.03;;;10.40;1.00;;;;;;5528111;25;20291;-91
2024/04/22 10:14:08;;;;;;;3.00;1.53;;;10.30;1.00;;;;;;5526461;25;20333;-90
2024/04/22 10:16:33;;;;;;;3.37;1.60;;;10.00;1.00;;;;;;5533303;25;20322;-84
2024/04/22 10:18:59;;;;;;;7.40;2.13;;;10.10;1.00;;;;;;5590193;25;20219;-85
2024/04/22 10:21:27;;;;;;;5.43;1.50;;;10.00;1.00;;;;;;5528181;25;20707;-84
2024/04/22 10:23:54;;;;;;;3.60;1.57;;;10.10;1.00;;;;;;5527791;26;20609;-82
2024/04/22 10:26:20;;;;;;;3.30;1.40;;;10.20;1.00;;;;;;5528936;25;20677;-87
2024/04/22 10:28:47;;;;;;;5.13;1.60;;;10.00;1.00;;;;;;5528490;25;20231;-84
2024/04/22 10:31:20;;;;;;;5.63;1.60;;;10.10;1.00;;;;;;5526004;25;20238;-88
2024/04/22 10:33:46;;;;;;;3.77;1.57;;;10.20;1.00;;;;;;5525643;25;20243;-84
2024/04/22 10:36:12;;;;;;;4.60;1.70;;;10.20;1.00;;;;;;5588999;25;20222;-85
2024/04/22 10:38:38;;;;;;;2.60;1.40;;;10.10;1.00;;;;;;5527605;25;20583;-85
2024/04/22 10:41:05;;;;;;;5.63;1.80;;;10.10;1.00;;;;;;5525846;25;20245;-87
2024/04/22 10:43:31;;;;;;;6.27;1.90;;;10.20;1.00;;;;;;5527185;25;20650;-84
2024/04/22 10:45:57;;;;;;;4.30;1.60;;;10.30;1.00;;;;;;5528586;25;20215;-88
2024/04/22 10:48:24;;;;;;;3.40;1.40;;;10.30;1.00;;;;;;5530387;25;20517;-87
2024/04/22 10:50:50;;;;;;;4.70;1.90;;;10.20;1.00;;;;;;5525844;25;20250;-88
2024/04/22 10:53:19;;;;;;;4.57;1.90;;;10.30;1.00;;;;;;5525817;25;20223;-89
2024/04/22 10:55:45;;;;;;;1.80;1.30;;;10.30;1.00;;;;;;5525867;25;20241;-92
2024/04/22 10:58:11;;;;;;;2.80;1.87;;;10.20;1.00;;;;;;5527581;25;20215;-86
2024/04/22 11:00:37;;;;;;;4.03;1.50;;;10.10;1.00;;;;;;5528219;26;20219;-87
2024/04/22 11:03:04;;;;;;;5.50;1.80;;;10.30;1.00;;;;;;5525995;25;20246;-85
2024/04/22 11:05:31;;;;;;;5.00;1.57;;;10.50;1.00;;;;;;5527546;25;20211;-84
2024/04/22 11:07:58;;;;;;;4.10;1.50;;;10.30;1.00;;;;;;5526011;25;20212;-91
2024/04/22 11:10:24;;;;;;;4.63;1.60;;;10.50;1.00;;;;;;5506140;25;20232;-84
2024/04/22 11:12:50;;;;;;;4.43;1.60;;;10.80;1.00;;;;;;5528846;26;20314;-88
2024/04/22 11:15:17;;;;;;;7.10;1.83;;;11.10;1.00;;;;;;5529707;25;20268;-89
2024/04/22 11:17:43;;;;;;;8.07;4.37;;;11.30;1.00;;;;;;5530125;26;20267;-85
2024/04/22 11:20:11;;;;;;;3.07;1.50;;;11.40;1.00;;;;;;5597306;25;20362;-90
2024/04/22 11:22:39;;;;;;;4.87;1.50;;;11.20;99.90;;;;;;5533719;25;20303;-86
2024/04/22 11:25:06;;;;;;;3.67;1.47;;;11.10;99.90;;;;;;5526730;25;20243;-87
2024/04/22 11:27:32;;;;;;;3.17;1.43;;;11.00;99.90;;;;;;5525596;25;20215;-88
2024/04/22 11:29:58;;;;;;;6.43;1.80;;;11.20;99.90;;;;;;5527883;25;20264;-84
2024/04/22 11:32:27;;;;;;;4.33;1.97;;;11.40;99.90;;;;;;5527652;25;20733;-86
2024/04/22 11:34:56;;;;;;;3.87;1.83;;;11.40;99.90;;;;;;5557799;25;20703;-91
2024/04/22 11:37:21;;;;;;;5.07;1.70;;;11.40;99.90;;;;;;5526010;25;20215;-86
2024/04/22 11:39:50;;;;;;;3.30;1.60;;;11.20;99.90;;;;;;5525308;25;20270;-84
2024/04/22 11:42:17;;;;;;;3.17;1.70;;;11.20;99.90;;;;;;5527978;25;20347;-85
2024/04/22 11:44:43;;;;;;;3.33;1.73;;;10.90;99.90;;;;;;5527038;25;20265;-89
2024/04/22 11:47:10;;;;;;;4.10;1.70;;;10.80;99.90;;;;;;5526923;26;20388;-89
2024/04/22 11:49:36;;;;;;;3.90;1.67;;;10.90;99.90;;;;;;5587449;25;20713;-85
2024/04/22 11:52:03;;;;;;;4.23;1.90;;;10.90;99.90;;;;;;5588063;25;20293;-87
2024/04/22 11:54:28;;;;;;;2.90;1.27;;;10.90;99.90;;;;;;5526379;25;20322;-85
2024/04/22 11:56:54;;;;;;;2.90;1.60;;;11.10;99.90;;;;;;5527732;25;20219;-84
2024/04/22 11:59:20;;;;;;;6.03;1.87;;;11.10;99.90;;;;;;5586646;25;20232;-84
2024/04/22 12:01:45;;;;;;;5.60;2.50;;;11.20;99.90;;;;;;5526869;25;20220;-88
2024/04/22 12:04:11;;;;;;;5.73;2.03;;;11.30;99.90;;;;;;5587978;25;20226;-84
2024/04/22 12:06:38;;;;;;;3.03;1.83;;;11.40;99.90;;;;;;5525949;26;20604;-85
2024/04/22 12:09:04;;;;;;;3.67;1.80;;;11.70;99.90;;;;;;5531408;25;20213;-84
2024/04/22 12:11:30;;;;;;;6.97;1.47;;;11.90;91.40;;;;;;5531296;25;20222;-85
2024/04/22 12:13:57;;;;;;;2.83;1.50;;;11.90;99.90;;;;;;5532028;25;20228;-85
2024/04/22 12:16:23;;;;;;;3.67;1.60;;;11.90;99.90;;;;;;5533623;26;20308;-86
2024/04/22 12:18:48;;;;;;;3.53;1.23;;;11.80;1.00;;;;;;5592085;25;20253;-86
2024/04/22 12:21:15;;;;;;;4.20;1.67;;;11.60;1.00;;;;;;5533462;26;20553;-90
2024/04/22 12:23:45;;;;;;;11.43;2.40;;;11.60;1.00;;;;;;5593699;25;20225;-85
2024/04/22 12:26:11;;;;;;;4.33;1.97;;;11.80;1.00;;;;;;5529611;26;20225;-92
2024/04/22 12:28:36;;;;;;;3.33;1.73;;;11.60;86.90;;;;;;5528698;25;20217;-87
2024/04/22 12:31:04;;;;;;;4.93;2.00;;;11.60;99.90;;;;;;5593983;25;20320;-84
2024/04/22 12:33:29;;;;;;;4.83;1.90;;;11.50;99.90;;;;;;5531005;25;20235;-86
2024/04/22 12:35:56;;;;;;;5.70;1.53;;;11.50;1.00;;;;;;5531333;25;20215;-93
2024/04/22 12:38:22;;;;;;;3.00;1.50;;;11.30;1.00;;;;;;5531593;25;20315;-84
2024/04/22 12:40:48;;;;;;;3.77;1.80;;;11.30;1.00;;;;;;5522736;26;20231;-84
2024/04/22 12:43:14;;;;;;;3.63;1.77;;;11.10;1.00;;;;;;5514626;25;20262;-84
2024/04/22 12:45:41;;;;;;;4.37;1.80;;;11.10;1.00;;;;;;5592174;25;20220;-90
2024/04/22 12:50:55;;;;;;;3.73;1.70;;;11.10;1.00;;;;;;5529522;26;20255;-91
2024/04/22 12:53:21;;;;;;;4.40;1.73;;;11.20;1.00;;;;;;5589997;25;20223;-85
2024/04/22 12:55:46;;;;;;;3.03;2.00;;;11.50;1.00;;;;;;5525860;25;20338;-86
2024/04/22 12:58:15;;;;;;;5.27;2.07;;;11.80;1.00;;;;;;5525541;25;20261;-85
2024/04/22 13:00:42;;;;;;;3.07;1.73;;;12.20;1.00;;;;;;5586478;25;20783;-85
2024/04/22 13:03:07;;;;;;;3.97;1.90;;;12.20;1.00;;;;;;5525310;25;20247;-85
2024/04/22 13:05:34;;;;;;;2.87;1.50;;;12.00;1.00;;;;;;5526438;25;20345;-86